Time;durP1;ratioP1;P1;durP2;ratioP2;P2;SDS_P1;SDS_P2;PMS_P1;PMS_P2;Temp;Humidity;BMP_temperature;BMP_pressure;BME280_temperature;BME280_humidity;BME280_pressure;Samples;Min_cycle;Max_cycle;Signal;HPM_P1;HPM_P2
2022/05/23 00:00:07;;;;;;;;;;;;;;;22.56;27.09;101489.47;2083970;28;958;-59
2022/05/23 00:01:07;;;;;;;;;;;;;;;22.56;27.90;101489.47;2083710;28;1871;-59
2022/05/23 00:02:08;;;;;;;;;;;;;;;22.55;27.47;101492.25;2083759;28;858;-59
2022/05/23 00:03:08;;;;;;;;;;;;;;;22.54;27.27;101488.63;2083764;28;795;-58
2022/05/23 00:04:08;;;;;;;;;;;;;;;22.54;27.69;101485.94;2083722;28;894;-58
2022/05/23 00:05:08;;;;;;;;;;;;;;;22.55;27.92;101492.25;2083746;28;1028;-58
2022/05/23 00:06:09;;;;;;;;;;;;;;;22.53;27.73;101491.41;2083739;28;827;-59
2022/05/23 00:07:12;;;;;;;;;;;;;;;22.51;28.10;101491.44;2083669;28;816;-58
2022/05/23 00:08:12;;;;;;;;;;;;;;;22.51;27.76;101488.72;2083690;28;870;-59
2022/05/23 00:09:12;;;;;;;;;;;;;;;22.50;27.30;101493.25;2083664;28;989;-59
2022/05/23 00:10:13;;;;;;;;;;;;;;;22.49;27.35;101493.28;2083655;28;851;-58
2022/05/23 00:11:13;;;;;;;;;;;;;;;22.49;28.21;101496.00;2083572;28;990;-59
2022/05/23 00:12:13;;;;;;;;;;;;;;;22.49;28.07;101499.59;2083658;28;989;-58
2022/05/23 00:13:14;;;;;;;;;;;;;;;22.47;27.42;101490.66;2084079;28;611;-59
2022/05/23 00:14:14;;;;;;;;;;;;;;;22.47;27.54;101492.47;2083642;28;843;-60
2022/05/23 00:15:14;;;;;;;;;;;;;;;22.47;27.78;101492.47;2083649;28;619;-58
2022/05/23 00:16:23;;;;;;;;;;;;;;;22.46;27.39;101496.09;2083597;28;1039;-58
2022/05/23 00:17:23;;;;;;;;;;;;;;;22.46;27.97;101488.00;2083471;28;1174;-58
2022/05/23 00:18:23;;;;;;;;;;;;;;;22.45;27.72;101492.53;2083591;28;978;-59
2022/05/23 00:19:25;;;;;;;;;;;;;;;22.44;27.50;101496.16;2083601;28;985;-58
2022/05/23 00:20:26;;;;;;;;;;;;;;;22.45;27.44;101492.53;2091146;28;1297;-58
2022/05/23 00:21:26;;;;;;;;;;;;;;;22.44;27.66;101495.25;2091129;28;1976;-58
2022/05/23 00:22:27;;;;;;;;;;;;;;;22.44;28.28;101497.94;2082990;28;981;-59
2022/05/23 00:23:27;;;;;;;;;;;;;;;22.44;28.26;101501.56;2083552;28;998;-59
2022/05/23 00:24:27;;;;;;;;;;;;;;;22.43;27.72;101493.44;2083503;28;772;-60
2022/05/23 00:25:27;;;;;;;;;;;;;;;22.43;27.73;101499.75;2083574;28;851;-58
2022/05/23 00:26:27;;;;;;;;;;;;;;;22.43;28.04;101496.16;2083662;28;867;-58
2022/05/23 00:27:29;;;;;;;;;;;;;;;22.42;27.55;101497.06;2091035;28;1171;-59
2022/05/23 00:28:29;;;;;;;;;;;;;;;22.42;27.96;101494.38;2082877;28;812;-58
2022/05/23 00:29:29;;;;;;;;;;;;;;;22.41;28.27;101493.50;2082913;28;1072;-60
2022/05/23 00:30:29;;;;;;;;;;;;;;;22.41;28.39;101490.81;2083523;28;835;-59
2022/05/23 00:31:29;;;;;;;;;;;;;;;22.40;27.85;101483.66;2083492;28;611;-59
2022/05/23 00:35:19;;;;;;;;;;;;;;;22.40;28.04;101477.34;2083680;28;618;-59
2022/05/23 00:36:19;;;;;;;;;;;;;;;22.39;28.43;101483.69;2083491;28;910;-60
2022/05/23 00:37:20;;;;;;;;;;;;;;;22.39;28.29;101478.28;2083361;28;1204;-59
2022/05/23 00:38:21;;;;;;;;;;;;;;;22.37;27.75;101478.34;2083457;28;834;-58
2022/05/23 00:39:21;;;;;;;;;;;;;;;22.37;27.88;101486.44;2084625;28;835;-58
2022/05/23 00:40:30;;;;;;;;;;;;;;;22.36;27.87;101480.16;2083433;28;859;-58
2022/05/23 00:43:13;;;;;;;;;;;;;;;22.35;27.89;101481.09;2083491;28;626;-59
2022/05/23 00:44:14;;;;;;;;;;;;;;;22.35;27.80;101482.91;2083380;28;961;-58
2022/05/23 00:45:17;;;;;;;;;;;;;;;22.34;28.48;101479.34;2083274;28;1697;-58
2022/05/23 00:46:17;;;;;;;;;;;;;;;22.34;28.39;101482.03;2083301;28;1002;-59
2022/05/23 00:47:20;;;;;;;;;;;;;;;22.34;28.44;101479.34;2083490;28;993;-59
2022/05/23 00:48:22;;;;;;;;;;;;;;;22.34;28.06;101478.44;2083422;28;816;-59
2022/05/23 00:49:35;;;;;;;;;;;;;;;22.34;28.59;101484.72;2083373;28;800;-58
2022/05/23 00:50:38;;;;;;;;;;;;;;;22.33;28.63;101485.66;2083419;28;815;-59
2022/05/23 00:51:38;;;;;;;;;;;;;;;22.34;28.34;101478.44;2083470;28;1202;-59
2022/05/23 00:52:44;;;;;;;;;;;;;;;22.34;28.61;101479.34;2083322;28;977;-59
2022/05/23 00:53:53;;;;;;;;;;;;;;;22.34;28.12;101479.34;2083536;28;1061;-59
2022/05/23 00:54:54;;;;;;;;;;;;;;;22.35;28.00;101481.09;2083306;28;783;-58
2022/05/23 00:55:55;;;;;;;;;;;;;;;22.36;27.77;101481.97;2083242;28;982;-59
2022/05/23 00:56:55;;;;;;;;;;;;;;;22.35;27.76;101478.41;2083237;28;839;-58
2022/05/23 00:57:57;;;;;;;;;;;;;;;22.35;28.68;101485.59;2083294;28;985;-59
2022/05/23 00:58:59;;;;;;;;;;;;;;;22.35;27.95;101482.91;2083229;28;1092;-59
2022/05/23 01:00:02;;;;;;;;;;;;;;;22.35;27.91;101489.19;2083282;28;879;-60
2022/05/23 01:01:05;;;;;;;;;;;;;;;22.33;28.88;101477.56;2083200;28;1967;-59
2022/05/23 01:02:07;;;;;;;;;;;;;;;22.34;27.94;101484.72;2083242;28;1056;-58
2022/05/23 01:03:10;;;;;;;;;;;;;;;22.33;28.46;101482.97;2083271;28;1002;-58
2022/05/23 01:04:10;;;;;;;;;;;;;;;22.34;27.96;101483.84;2083309;28;851;-58
2022/05/23 01:05:10;;;;;;;;;;;;;;;22.33;27.88;101485.66;2083512;28;736;-59
2022/05/23 01:06:10;;;;;;;;;;;;;;;22.32;27.97;101480.28;2083245;28;848;-58
2022/05/23 01:07:12;;;;;;;;;;;;;;;22.31;27.84;101479.44;2083235;28;922;-59
2022/05/23 01:08:16;;;;;;;;;;;;;;;22.32;27.93;101480.28;2084244;28;847;-58
2022/05/23 01:09:16;;;;;;;;;;;;;;;22.32;28.12;101483.00;2083176;28;635;-58
2022/05/23 01:10:16;;;;;;;;;;;;;;;22.31;27.89;101479.44;2083185;28;1028;-58
2022/05/23 01:11:17;;;;;;;;;;;;;;;22.32;28.51;101475.78;2083166;28;985;-58
2022/05/23 01:12:18;;;;;;;;;;;;;;;22.32;28.12;101474.91;2083147;28;1045;-58
2022/05/23 01:13:18;;;;;;;;;;;;;;;22.32;27.86;101473.09;2083218;28;878;-59
2022/05/23 01:14:18;;;;;;;;;;;;;;;22.32;27.97;101470.41;2083130;28;989;-58
2022/05/23 01:15:23;;;;;;;;;;;;;;;22.32;28.88;101474.91;2083314;28;765;-59
2022/05/23 01:16:25;;;;;;;;;;;;;;;22.31;28.04;101473.13;2083358;28;772;-59
2022/05/23 01:17:26;;;;;;;;;;;;;;;22.31;28.54;101474.03;2083010;28;1157;-59
2022/05/23 01:18:26;;;;;;;;;;;;;;;22.30;27.96;101472.25;2083138;28;974;-59
2022/05/23 01:19:26;;;;;;;;;;;;;;;22.30;28.10;101474.97;2083137;28;997;-59
2022/05/23 01:20:28;;;;;;;;;;;;;;;22.30;28.27;101476.75;2083114;28;1030;-59
2022/05/23 01:21:33;;;;;;;;;;;;;;;22.30;27.97;101476.75;2085217;28;1910;-58
2022/05/23 01:22:48;;;;;;;;;;;;;;;22.30;27.93;101466.88;2083310;28;838;-59
2022/05/23 01:23:55;;;;;;;;;;;;;;;22.30;28.12;101472.25;2083127;28;795;-58
2022/05/23 01:25:17;;;;;;;;;;;;;;;22.29;28.79;101475.88;2083124;28;942;-59
2022/05/23 01:26:17;;;;;;;;;;;;;;;22.30;28.21;101472.25;2083102;28;1044;-58
2022/05/23 01:27:18;;;;;;;;;;;;;;;22.29;28.81;101465.09;2083091;28;962;-60
2022/05/23 01:28:18;;;;;;;;;;;;;;;22.30;28.45;101474.06;2083230;28;792;-59
2022/05/23 01:29:19;;;;;;;;;;;;;;;22.30;28.05;101466.88;2083196;28;974;-59
2022/05/23 01:30:20;;;;;;;;;;;;;;;22.29;28.53;101470.50;2083087;28;1037;-60
2022/05/23 01:31:20;;;;;;;;;;;;;;;22.30;28.07;101463.25;2083031;28;776;-59
2022/05/23 01:32:20;;;;;;;;;;;;;;;22.28;28.60;101466.03;2083088;28;835;-59
2022/05/23 01:33:20;;;;;;;;;;;;;;;22.28;28.89;101466.03;2083038;28;970;-60
2022/05/23 01:34:21;;;;;;;;;;;;;;;22.29;28.20;101475.00;2083011;28;784;-58
2022/05/23 01:35:21;;;;;;;;;;;;;;;22.28;28.28;101463.31;2084174;28;958;-58
2022/05/23 01:36:21;;;;;;;;;;;;;;;22.28;28.72;101473.22;2083132;28;768;-58
2022/05/23 01:37:22;;;;;;;;;;;;;;;22.28;28.11;101470.53;2082983;28;844;-60
2022/05/23 01:38:23;;;;;;;;;;;;;;;22.28;28.92;101474.13;2082980;28;997;-60
2022/05/23 01:39:23;;;;;;;;;;;;;;;22.27;28.25;101466.06;2083014;28;768;-59
2022/05/23 01:40:23;;;;;;;;;;;;;;;22.29;28.17;101472.28;2083018;28;1047;-58
2022/05/23 01:41:24;;;;;;;;;;;;;;;22.28;28.14;101473.22;2082923;28;1953;-58
2022/05/23 01:42:24;;;;;;;;;;;;;;;22.28;28.17;101467.81;2090510;28;1171;-60
2022/05/23 01:43:25;;;;;;;;;;;;;;;22.28;28.54;101468.72;2090642;28;743;-59
2022/05/23 01:44:25;;;;;;;;;;;;;;;22.28;28.47;101473.22;2083027;28;795;-58
2022/05/23 01:45:27;;;;;;;;;;;;;;;22.26;28.85;101467.88;2082985;28;854;-58
2022/05/23 01:46:27;;;;;;;;;;;;;;;22.27;28.93;101466.97;2082910;28;764;-60
2022/05/23 01:47:27;;;;;;;;;;;;;;;22.27;28.36;101469.66;2083695;28;1021;-60
2022/05/23 01:48:27;;;;;;;;;;;;;;;22.27;28.41;101466.97;2082939;28;823;-58
2022/05/23 01:49:28;;;;;;;;;;;;;;;22.26;29.03;101470.59;2082996;28;1041;-59
2022/05/23 01:50:28;;;;;;;;;;;;;;;22.26;29.00;101465.19;2082890;28;695;-59
2022/05/23 01:51:28;;;;;;;;;;;;;;;22.26;28.57;101472.38;2082170;28;777;-60
2022/05/23 01:52:28;;;;;;;;;;;;;;;22.26;28.80;101469.69;2090497;28;848;-59
2022/05/23 01:53:29;;;;;;;;;;;;;;;22.25;28.85;101466.13;2090558;28;973;-59
2022/05/23 01:54:29;;;;;;;;;;;;;;;22.26;28.63;101464.28;2083036;28;854;-58
2022/05/23 01:55:29;;;;;;;;;;;;;;;22.26;28.34;101469.69;2082953;28;863;-59
2022/05/23 01:56:29;;;;;;;;;;;;;;;22.27;28.58;101471.44;2082898;28;1024;-58
2022/05/23 01:57:30;;;;;;;;;;;;;;;22.27;28.58;101460.66;2082930;28;925;-59
2022/05/23 02:01:15;;;;;;;;;;;;;;;22.26;28.19;101462.50;2083356;28;1883;-59
2022/05/23 02:02:16;;;;;;;;;;;;;;;22.25;29.03;101449.94;2082912;28;875;-58
2022/05/23 02:03:16;;;;;;;;;;;;;;;22.25;29.25;101458.03;2083017;28;780;-59
2022/05/23 02:04:16;;;;;;;;;;;;;;;22.24;28.75;101456.25;2082901;28;760;-59
2022/05/23 02:05:17;;;;;;;;;;;;;;;22.24;28.59;101452.66;2082875;28;847;-58
2022/05/23 02:06:17;;;;;;;;;;;;;;;22.23;28.50;101450.88;2082847;28;808;-58
2022/05/23 02:07:17;;;;;;;;;;;;;;;22.24;28.80;101447.25;2082926;28;799;-58
2022/05/23 02:08:17;;;;;;;;;;;;;;;22.24;28.22;101444.56;2082833;28;1099;-58
2022/05/23 02:09:26;;;;;;;;;;;;;;;22.24;28.20;101456.25;2082887;28;1001;-59
2022/05/23 02:10:26;;;;;;;;;;;;;;;22.23;28.88;101449.09;2082987;28;887;-58
2022/05/23 02:11:27;;;;;;;;;;;;;;;22.23;28.54;101448.19;2082863;28;862;-58
2022/05/23 02:12:27;;;;;;;;;;;;;;;22.25;28.29;101447.22;2082857;28;985;-59
2022/05/23 02:13:27;;;;;;;;;;;;;;;22.24;28.94;101444.56;2082966;28;780;-59
2022/05/23 02:14:27;;;;;;;;;;;;;;;22.24;28.58;101445.47;2082823;28;1017;-59
2022/05/23 02:15:31;;;;;;;;;;;;;;;22.23;28.80;101446.38;2082858;28;1039;-58
2022/05/23 02:16:31;;;;;;;;;;;;;;;22.25;28.72;101443.63;2082873;28;890;-58
2022/05/23 02:17:32;;;;;;;;;;;;;;;22.23;29.06;101446.38;2082623;28;1501;-60
2022/05/23 02:18:32;;;;;;;;;;;;;;;22.24;28.37;101445.47;2082815;28;958;-59
2022/05/23 02:19:32;;;;;;;;;;;;;;;22.22;28.44;101439.22;2082256;28;692;-59
2022/05/23 02:20:32;;;;;;;;;;;;;;;22.23;28.65;101449.09;2082743;28;1906;-58
2022/05/23 02:21:32;;;;;;;;;;;;;;;22.22;28.35;101447.31;2082827;28;1048;-60
2022/05/23 02:22:33;;;;;;;;;;;;;;;22.21;28.42;101450.94;2082830;28;815;-58
2022/05/23 02:23:34;;;;;;;;;;;;;;;22.22;28.38;101447.31;2082813;28;835;-59
2022/05/23 02:24:34;;;;;;;;;;;;;;;22.23;28.29;101446.38;2082799;28;812;-59
2022/05/23 02:25:35;;;;;;;;;;;;;;;22.23;28.87;101448.19;2082935;28;691;-59
2022/05/23 02:26:35;;;;;;;;;;;;;;;22.22;28.15;101444.63;2082916;28;890;-59
2022/05/23 02:27:35;;;;;;;;;;;;;;;22.24;28.14;101450.84;2082804;28;1056;-60
2022/05/23 02:28:35;;;;;;;;;;;;;;;22.24;28.31;101450.84;2082849;28;989;-58
2022/05/23 02:29:36;;;;;;;;;;;;;;;22.23;29.06;101451.78;2082805;28;760;-58
2022/05/23 02:30:36;;;;;;;;;;;;;;;22.22;29.04;101452.72;2082826;28;768;-58
2022/05/23 02:31:36;;;;;;;;;;;;;;;22.22;28.39;101447.31;2090353;28;862;-59
2022/05/23 02:32:36;;;;;;;;;;;;;;;22.21;28.71;101451.81;2090421;28;977;-58
2022/05/23 02:33:36;;;;;;;;;;;;;;;22.21;28.94;101453.66;2084601;28;830;-58
2022/05/23 02:34:37;;;;;;;;;;;;;;;22.21;29.07;101454.50;2083343;28;843;-59
2022/05/23 02:35:37;;;;;;;;;;;;;;;22.21;28.45;101454.50;2082811;28;827;-59
2022/05/23 02:36:37;;;;;;;;;;;;;;;22.21;29.18;101457.22;2082772;28;824;-59
2022/05/23 02:37:37;;;;;;;;;;;;;;;22.22;28.74;101452.72;2082719;28;1195;-59
2022/05/23 02:38:38;;;;;;;;;;;;;;;22.21;28.43;101451.81;2082733;28;784;-59
2022/05/23 02:39:38;;;;;;;;;;;;;;;22.21;28.35;101450.94;2082739;28;990;-60
2022/05/23 02:40:38;;;;;;;;;;;;;;;22.21;29.19;101445.56;2082692;28;1962;-59
2022/05/23 02:41:38;;;;;;;;;;;;;;;22.19;28.98;101445.59;2082733;28;684;-58
2022/05/23 02:42:38;;;;;;;;;;;;;;;22.21;28.96;101445.56;2082713;28;791;-58
2022/05/23 02:43:39;;;;;;;;;;;;;;;22.20;28.60;101444.66;2090261;28;1333;-58
2022/05/23 02:44:39;;;;;;;;;;;;;;;22.21;29.02;101445.56;2082057;28;938;-58
2022/05/23 02:45:41;;;;;;;;;;;;;;;22.21;28.36;101448.25;2082192;28;1065;-58
2022/05/23 02:46:41;;;;;;;;;;;;;;;22.21;28.60;101450.94;2082750;28;812;-59
2022/05/23 02:47:43;;;;;;;;;;;;;;;22.20;28.94;101458.16;2082832;28;790;-58
2022/05/23 02:48:43;;;;;;;;;;;;;;;22.20;28.31;101455.44;2082732;28;862;-58
2022/05/23 02:49:43;;;;;;;;;;;;;;;22.19;28.31;101453.69;2082682;28;786;-58
2022/05/23 02:50:43;;;;;;;;;;;;;;;22.18;29.03;101446.50;2082707;28;839;-59
2022/05/23 02:51:43;;;;;;;;;;;;;;;22.19;28.99;101452.81;2082640;28;989;-59
2022/05/23 02:52:44;;;;;;;;;;;;;;;22.19;28.46;101450.97;2082743;28;882;-59
2022/05/23 02:53:44;;;;;;;;;;;;;;;22.19;28.39;101447.41;2082697;28;779;-59
2022/05/23 02:54:44;;;;;;;;;;;;;;;22.19;29.06;101450.13;2082690;28;855;-60
2022/05/23 02:55:44;;;;;;;;;;;;;;;22.19;28.46;101450.13;2082653;28;1040;-59
2022/05/23 02:56:45;;;;;;;;;;;;;;;22.18;28.42;101457.31;2082656;28;977;-60
2022/05/23 02:57:45;;;;;;;;;;;;;;;22.18;28.96;101451.91;2082700;28;1032;-59
2022/05/23 02:58:45;;;;;;;;;;;;;;;22.19;28.25;101447.41;2082651;28;780;-59
2022/05/23 02:59:45;;;;;;;;;;;;;;;22.19;28.29;101453.69;2090209;28;958;-58
2022/05/23 03:00:45;;;;;;;;;;;;;;;22.19;28.36;101388.03;2090257;28;1969;-58
2022/05/23 03:03:06;;;;;;;;;;;;;;;22.19;28.61;101393.44;2084006;28;598;-59
2022/05/23 03:04:06;;;;;;;;;;;;;;;22.19;29.02;101393.44;2084350;28;732;-59
2022/05/23 03:05:07;;;;;;;;;;;;;;;22.19;29.07;101386.22;2084157;28;981;-58
2022/05/23 03:06:08;;;;;;;;;;;;;;;22.21;29.05;101386.19;2091649;28;1373;-59
2022/05/23 03:07:08;;;;;;;;;;;;;;;22.21;28.95;101388.88;2091847;28;804;-58
2022/05/23 03:08:09;;;;;;;;;;;;;;;22.21;28.62;101468.00;2083528;28;1192;-58
2022/05/23 03:09:09;;;;;;;;;;;;;;;22.22;28.20;101474.31;2083503;28;1045;-58
2022/05/23 03:10:09;;;;;;;;;;;;;;;22.21;29.07;101462.59;2084270;28;784;-58
2022/05/23 03:11:09;;;;;;;;;;;;;;;22.19;28.33;101458.22;2084079;28;903;-58
2022/05/23 03:12:10;;;;;;;;;;;;;;;22.19;29.01;101452.81;2084241;28;954;-58
2022/05/23 03:13:10;;;;;;;;;;;;;;;22.17;29.15;101457.38;2091597;28;1373;-59
2022/05/23 03:14:11;;;;;;;;;;;;;;;22.18;28.94;101456.44;2091762;28;945;-58
2022/05/23 03:15:11;;;;;;;;;;;;;;;22.19;28.30;101452.81;2084266;28;914;-59
2022/05/23 03:16:12;;;;;;;;;;;;;;;22.18;29.14;101451.03;2084149;28;780;-59
2022/05/23 03:17:13;;;;;;;;;;;;;;;22.17;29.08;101454.66;2084479;28;1093;-58
2022/05/23 03:18:13;;;;;;;;;;;;;;;22.17;28.93;101450.13;2084030;28;799;-58
2022/05/23 03:19:13;;;;;;;;;;;;;;;22.18;28.67;101451.03;2083372;28;1323;-58
2022/05/23 03:20:14;;;;;;;;;;;;;;;22.17;28.44;101443.88;2083459;28;851;-59
2022/05/23 03:26:58;;;;;;;;;;;;;;;22.18;29.10;101443.81;2084023;28;1969;-58
2022/05/23 03:27:50;;;;;;;;;;;;;;;22.17;28.61;101431.25;2084154;28;697;-58
2022/05/23 03:28:50;;;;;;;;;;;;;;;22.16;28.58;101432.19;2084019;28;903;-59
2022/05/23 03:29:51;;;;;;;;;;;;;;;22.16;28.40;101434.88;2084874;28;986;-58
2022/05/23 03:30:51;;;;;;;;;;;;;;;22.17;28.65;101433.09;2085527;28;1057;-58
2022/05/23 03:31:52;;;;;;;;;;;;;;;22.17;28.55;101422.28;2084020;28;815;-58
2022/05/23 03:32:52;;;;;;;;;;;;;;;22.17;28.29;101435.78;2083993;28;1017;-58
2022/05/23 03:33:52;;;;;;;;;;;;;;;22.17;29.21;101427.69;2084033;28;790;-58
2022/05/23 03:34:52;;;;;;;;;;;;;;;22.17;28.81;101431.25;2083921;28;819;-58
2022/05/23 03:35:52;;;;;;;;;;;;;;;22.17;28.64;101425.00;2083948;28;906;-59
2022/05/23 03:36:52;;;;;;;;;;;;;;;22.16;28.90;101429.50;2083931;28;784;-58
2022/05/23 03:37:53;;;;;;;;;;;;;;;22.17;28.39;101431.25;2083921;28;870;-58
2022/05/23 03:38:53;;;;;;;;;;;;;;;22.17;28.74;101430.38;2083900;28;941;-58
2022/05/23 03:39:54;;;;;;;;;;;;;;;22.18;28.43;101426.75;2083938;28;839;-58
2022/05/23 03:40:54;;;;;;;;;;;;;;;22.18;28.26;101426.75;2083926;28;1945;-60
2022/05/23 03:41:54;;;;;;;;;;;;;;;22.18;28.31;101429.47;2083879;28;1040;-59
2022/05/23 03:42:55;;;;;;;;;;;;;;;22.18;28.36;101424.94;2083912;28;756;-58
2022/05/23 03:43:55;;;;;;;;;;;;;;;22.18;28.31;101429.47;2083836;28;788;-59
2022/05/23 03:44:55;;;;;;;;;;;;;;;22.18;28.61;101424.94;2083847;28;866;-58
2022/05/23 03:46:02;;;;;;;;;;;;;;;22.18;28.58;101434.84;2083880;28;990;-58
2022/05/23 03:47:03;;;;;;;;;;;;;;;22.18;28.45;101429.47;2083872;28;883;-59
2022/05/23 03:48:04;;;;;;;;;;;;;;;22.18;28.68;101427.63;2083857;28;858;-58
2022/05/23 03:49:06;;;;;;;;;;;;;;;22.18;29.04;101432.16;2091420;28;1764;-58
2022/05/23 03:50:08;;;;;;;;;;;;;;;22.18;29.10;101435.72;2091312;28;831;-58
2022/05/23 03:51:08;;;;;;;;;;;;;;;22.18;28.68;101432.16;2083787;28;835;-58
2022/05/23 03:52:08;;;;;;;;;;;;;;;22.17;28.37;101428.56;2091378;28;1212;-58
2022/05/23 03:53:09;;;;;;;;;;;;;;;22.16;28.48;101429.50;2091483;28;1016;-59
2022/05/23 03:54:09;;;;;;;;;;;;;;;22.16;28.99;101426.78;2083880;28;930;-58
2022/05/23 03:55:09;;;;;;;;;;;;;;;22.16;28.53;101437.56;2083796;28;1032;-58
2022/05/23 03:56:10;;;;;;;;;;;;;;;22.16;28.62;101434.00;2083918;28;737;-59
2022/05/23 03:57:10;;;;;;;;;;;;;;;22.16;28.31;101431.31;2083815;28;842;-59
2022/05/23 03:58:10;;;;;;;;;;;;;;;22.16;28.32;101432.19;2083924;28;843;-58
2022/05/23 03:59:11;;;;;;;;;;;;;;;22.15;29.17;101435.81;2084922;28;977;-59
2022/05/23 04:00:15;;;;;;;;;;;;;;;22.16;28.71;101418.69;2083757;28;981;-58
2022/05/23 04:01:17;;;;;;;;;;;;;;;22.17;28.27;101425.00;2083626;28;1947;-58
2022/05/23 04:02:17;;;;;;;;;;;;;;;23.38;26.66;101431.84;2083878;28;741;-58
2022/05/23 04:03:18;;;;;;;;;;;;;;;24.21;25.44;101435.97;2083724;28;993;-58
2022/05/23 04:04:18;;;;;;;;;;;;;;;24.67;25.57;101427.81;2083719;28;942;-59
2022/05/23 04:05:18;;;;;;;;;;;;;;;25.13;24.05;101429.53;2083834;28;994;-60
2022/05/23 04:06:18;;;;;;;;;;;;;;;25.57;24.16;101428.53;2083729;28;891;-59
2022/05/23 04:07:19;;;;;;;;;;;;;;;25.88;23.69;101418.97;2083741;28;772;-60
2022/05/23 04:08:19;;;;;;;;;;;;;;;26.14;22.75;101422.31;2083750;28;974;-59
2022/05/23 04:09:19;;;;;;;;;;;;;;;26.39;22.83;101419.28;2083661;28;927;-59
2022/05/23 04:10:19;;;;;;;;;;;;;;;26.60;22.69;101438.16;2083659;28;855;-60
2022/05/23 04:11:19;;;;;;;;;;;;;;;26.86;21.93;101436.03;2083726;28;1139;-59
2022/05/23 04:12:19;;;;;;;;;;;;;;;27.02;21.77;101455.13;2083685;28;788;-59
2022/05/23 04:13:20;;;;;;;;;;;;;;;27.05;21.27;101445.00;2084235;28;835;-59
2022/05/23 04:14:20;;;;;;;;;;;;;;;27.47;21.12;101440.06;2082601;28;969;-58
2022/05/23 04:15:20;;;;;;;;;;;;;;;27.70;21.32;101413.50;2083613;28;1223;-59
2022/05/23 04:16:20;;;;;;;;;;;;;;;27.82;20.56;101431.00;2083631;28;981;-59
2022/05/23 04:17:20;;;;;;;;;;;;;;;27.93;20.92;101412.22;2083510;28;1266;-59
2022/05/23 04:18:21;;;;;;;;;;;;;;;28.07;20.19;101414.16;2083657;28;914;-59
2022/05/23 04:19:21;;;;;;;;;;;;;;;28.25;20.59;101406.84;2083750;28;721;-59
2022/05/23 04:20:21;;;;;;;;;;;;;;;28.36;20.42;101408.03;2083612;28;1020;-59
2022/05/23 04:21:21;;;;;;;;;;;;;;;28.50;19.99;101408.13;2083578;28;1910;-58
2022/05/23 04:22:21;;;;;;;;;;;;;;;28.62;19.59;101408.38;2083585;28;977;-59
2022/05/23 04:23:22;;;;;;;;;;;;;;;28.70;19.66;101406.06;2083554;28;1017;-59
2022/05/23 04:24:22;;;;;;;;;;;;;;;28.84;19.34;101408.88;2083572;28;819;-59
2022/05/23 04:25:22;;;;;;;;;;;;;;;28.97;19.80;101414.47;2083607;28;795;-60
2022/05/23 04:26:22;;;;;;;;;;;;;;;28.93;19.63;101410.16;2083593;28;902;-59
2022/05/23 04:27:23;;;;;;;;;;;;;;;29.17;18.61;101416.94;2085402;28;1048;-59
2022/05/23 04:28:23;;;;;;;;;;;;;;;29.29;18.67;101408.00;2083538;28;752;-59
2022/05/23 04:29:23;;;;;;;;;;;;;;;29.33;18.99;101412.31;2083608;28;1020;-59
2022/05/23 04:30:24;;;;;;;;;;;;;;;29.44;18.80;101411.66;2091045;28;855;-59
2022/05/23 04:31:24;;;;;;;;;;;;;;;29.57;18.93;101407.19;2082956;28;1289;-58
2022/05/23 04:35:13;;;;;;;;;;;;;;;29.72;18.87;101394.41;2083591;28;681;-59
2022/05/23 04:36:14;;;;;;;;;;;;;;;29.76;18.47;101397.81;2083466;28;874;-59
2022/05/23 04:37:14;;;;;;;;;;;;;;;29.85;18.64;101399.94;2083418;28;1200;-59
2022/05/23 04:38:14;;;;;;;;;;;;;;;29.99;18.42;101398.22;2083447;28;859;-60
2022/05/23 04:39:14;;;;;;;;;;;;;;;30.01;18.82;101394.41;2083422;28;827;-59
2022/05/23 04:40:16;;;;;;;;;;;;;;;30.11;18.20;101399.25;2083424;28;820;-59
2022/05/23 04:41:16;;;;;;;;;;;;;;;30.06;18.62;101402.31;2083593;28;1898;-59
2022/05/23 04:42:16;;;;;;;;;;;;;;;30.09;18.57;101395.75;2083416;28;914;-58
2022/05/23 04:43:16;;;;;;;;;;;;;;;30.05;18.58;101395.09;2083823;28;990;-59
2022/05/23 04:44:16;;;;;;;;;;;;;;;29.99;17.93;101396.38;2083397;28;847;-59
2022/05/23 04:45:17;;;;;;;;;;;;;;;30.11;18.24;101397.41;2083408;28;938;-58
2022/05/23 04:46:17;;;;;;;;;;;;;;;30.21;18.25;101399.53;2083419;28;804;-59
2022/05/23 04:49:55;;;;;;;;;;;;;;;30.44;17.87;101400.72;2083446;28;610;-60
2022/05/23 04:50:55;;;;;;;;;;;;;;;30.43;17.68;101391.66;2090934;28;1224;-60
2022/05/23 04:51:55;;;;;;;;;;;;;;;30.46;17.73;101396.91;2090968;28;989;-59
2022/05/23 04:52:57;;;;;;;;;;;;;;;30.61;17.89;101408.72;2083424;28;771;-60
2022/05/23 04:53:57;;;;;;;;;;;;;;;30.57;17.85;101398.03;2083446;28;780;-59
2022/05/23 04:54:58;;;;;;;;;;;;;;;30.53;18.30;101391.91;2083333;28;998;-59
2022/05/23 04:56:00;;;;;;;;;;;;;;;30.63;17.64;101399.50;2083304;28;1041;-59
2022/05/23 04:57:00;;;;;;;;;;;;;;;30.88;17.75;101399.59;2083317;28;1039;-59
2022/05/23 04:58:00;;;;;;;;;;;;;;;30.87;17.52;101397.81;2083298;28;775;-59
2022/05/23 04:59:00;;;;;;;;;;;;;;;30.96;17.85;101398.19;2083228;28;966;-58
2022/05/23 05:00:02;;;;;;;;;;;;;;;31.04;17.64;101393.06;2085524;28;667;-60
2022/05/23 05:01:02;;;;;;;;;;;;;;;30.89;17.37;101400.47;2083051;28;1955;-60
2022/05/23 05:02:03;;;;;;;;;;;;;;;31.06;17.76;101402.03;2083251;28;977;-61
2022/05/23 05:03:03;;;;;;;;;;;;;;;31.17;17.12;101404.03;2083225;28;1053;-60
2022/05/23 05:04:03;;;;;;;;;;;;;;;31.18;17.16;101395.72;2083213;28;1037;-60
2022/05/23 05:05:04;;;;;;;;;;;;;;;31.13;17.68;101392.41;2083234;28;981;-58
2022/05/23 05:06:04;;;;;;;;;;;;;;;31.32;17.46;101396.59;2083201;28;993;-60
2022/05/23 05:07:04;;;;;;;;;;;;;;;31.47;17.23;101400.13;2083290;28;827;-59
2022/05/23 05:08:05;;;;;;;;;;;;;;;31.50;17.22;101406.22;2083231;28;903;-59
2022/05/23 05:09:05;;;;;;;;;;;;;;;31.59;17.24;101392.88;2083265;28;803;-59
2022/05/23 05:10:05;;;;;;;;;;;;;;;31.61;17.25;101397.22;2083139;28;1045;-60
2022/05/23 05:11:05;;;;;;;;;;;;;;;31.45;17.31;101386.53;2083169;28;1048;-59
2022/05/23 05:12:07;;;;;;;;;;;;;;;31.44;17.35;101381.19;2083659;28;974;-58
2022/05/23 05:13:07;;;;;;;;;;;;;;;31.56;17.45;101387.63;2082719;28;1588;-57
2022/05/23 05:14:07;;;;;;;;;;;;;;;31.58;17.24;101383.75;2081394;28;1932;-59
2022/05/23 05:15:08;;;;;;;;;;;;;;;31.62;16.85;101368.00;2078616;28;1458;-59
2022/05/23 05:16:08;;;;;;;;;;;;;;;31.57;17.10;101376.53;2082937;28;799;-58
2022/05/23 05:17:08;;;;;;;;;;;;;;;31.66;17.14;101380.50;2082408;28;1189;-59
2022/05/23 05:18:08;;;;;;;;;;;;;;;31.56;16.98;101376.66;2082739;28;796;-58
2022/05/23 05:19:09;;;;;;;;;;;;;;;31.54;17.11;101373.16;2083091;28;863;-59
2022/05/23 05:20:09;;;;;;;;;;;;;;;31.59;17.07;101369.09;2083114;28;1001;-59
2022/05/23 05:21:10;;;;;;;;;;;;;;;31.48;17.53;101379.97;2082969;28;1918;-60
2022/05/23 05:22:10;;;;;;;;;;;;;;;31.56;16.77;101368.44;2083139;28;1001;-59
2022/05/23 05:23:10;;;;;;;;;;;;;;;31.54;17.12;101376.75;2083113;28;1044;-59
2022/05/23 05:24:10;;;;;;;;;;;;;;;31.65;17.01;101373.25;2083083;28;799;-59
2022/05/23 05:25:11;;;;;;;;;;;;;;;31.52;16.87;101370.53;2082961;28;858;-58
2022/05/23 05:26:11;;;;;;;;;;;;;;;31.73;16.95;101369.97;2083615;28;771;-58
2022/05/23 05:27:11;;;;;;;;;;;;;;;31.89;16.90;101367.88;2083372;28;1041;-59
2022/05/23 05:28:11;;;;;;;;;;;;;;;31.73;16.53;101367.25;2083086;28;985;-59
2022/05/23 05:29:12;;;;;;;;;;;;;;;31.79;17.06;101369.53;2082449;28;895;-60
2022/05/23 05:30:19;;;;;;;;;;;;;;;31.81;16.32;101362.09;2082499;28;990;-59
2022/05/23 05:31:29;;;;;;;;;;;;;;;31.76;16.77;101367.03;2083073;28;794;-59
2022/05/23 05:32:36;;;;;;;;;;;;;;;31.79;16.81;101367.69;2083066;28;1057;-58
2022/05/23 05:33:40;;;;;;;;;;;;;;;31.82;16.95;101371.16;2083105;28;997;-59
2022/05/23 05:34:51;;;;;;;;;;;;;;;31.76;16.40;101362.44;2083014;28;1063;-59
2022/05/23 05:35:54;;;;;;;;;;;;;;;31.72;16.71;101365.47;2083056;28;791;-59
2022/05/23 05:36:59;;;;;;;;;;;;;;;31.85;16.36;101373.69;2082989;28;1004;-58
2022/05/23 05:38:13;;;;;;;;;;;;;;;31.86;16.99;101368.09;2083052;28;882;-59
2022/05/23 05:39:16;;;;;;;;;;;;;;;31.90;16.31;101374.22;2083075;28;941;-59